Time;durP1;ratioP1;P1;durP2;ratioP2;P2;SDS_P1;SDS_P2;PMS_P1;PMS_P2;Temp;Humidity;BMP_temperature;BMP_pressure;BME280_temperature;BME280_humidity;BME280_pressure;Samples;Min_cycle;Max_cycle;Signal;HPM_P1;HPM_P2
2024/01/25 00:00:11;;;;;;;43.03;23.03;;;;;;;-144.30;79.54;86686.84;5053433;28;20211;-59
2024/01/25 00:02:38;;;;;;;43.70;25.27;;;;;;;-144.30;79.66;86678.88;5049466;28;20195;-58
2024/01/25 00:05:05;;;;;;;44.33;25.40;;;;;;;-144.30;79.95;86641.09;5049386;28;20589;-58
2024/01/25 00:07:32;;;;;;;44.53;25.00;;;;;;;-144.30;80.01;86710.72;5049419;28;20196;-58
2024/01/25 00:10:00;;;;;;;47.93;25.07;;;;;;;-144.30;79.97;86517.81;5049323;28;20200;-59
2024/01/25 00:12:28;;;;;;;42.83;23.17;;;;;;;-144.30;79.97;86678.88;5049410;28;20327;-54
2024/01/25 00:14:55;;;;;;;41.50;22.33;;;;;;;-144.30;79.85;86704.75;5049360;28;20197;-54
2024/01/25 00:17:22;;;;;;;41.20;22.03;;;;;;;-144.30;80.05;86710.72;5049189;28;20318;-55
2024/01/25 00:19:49;;;;;;;42.30;22.20;;;;;;;-144.30;79.92;86696.78;5049390;28;20215;-55
2024/01/25 00:22:16;;;;;;;39.47;22.00;;;;;;;-144.30;79.88;86676.91;5049341;28;20262;-55
2024/01/25 00:24:43;;;;;;;38.17;21.40;;;;;;;-144.30;79.69;86684.84;5049591;28;20197;-55
2024/01/25 00:27:10;;;;;;;42.17;21.53;;;;;;;-144.30;80.15;86702.75;5048703;28;20232;-55
2024/01/25 00:29:38;;;;;;;36.23;20.87;;;;;;;-144.30;80.72;86686.84;5049431;28;20200;-54
2024/01/25 00:32:06;;;;;;;31.67;19.30;;;;;;;-144.30;81.25;86668.94;5049078;28;20204;-54
2024/01/25 00:34:33;;;;;;;36.93;18.97;;;;;;;-144.30;80.72;86682.88;5049282;28;20205;-55
2024/01/25 00:37:00;;;;;;;34.17;18.97;;;;;;;-144.30;80.40;86684.84;5049280;28;20208;-55
2024/01/25 00:39:28;;;;;;;30.77;17.93;;;;;;;-144.30;80.13;86670.94;5049036;28;20207;-55
2024/01/25 00:42:03;;;;;;;31.97;18.80;;;;;;;-144.30;79.68;86668.94;5049229;28;20197;-54
2024/01/25 00:44:31;;;;;;;31.50;18.20;;;;;;;-144.30;79.44;86676.91;5049141;28;20197;-55
2024/01/25 00:47:00;;;;;;;27.63;17.03;;;;;;;-144.30;79.46;86676.91;5049241;28;20200;-56
2024/01/25 00:49:27;;;;;;;28.43;17.30;;;;;;;-144.30;79.31;86704.75;5049048;28;20202;-55
2024/01/25 00:51:59;;;;;;;30.10;17.23;;;;;;;-144.30;79.26;86662.97;5051335;28;20197;-58
2024/01/25 00:54:26;;;;;;;31.43;17.63;;;;;;;-144.30;79.14;86674.91;5052707;28;20591;-58
2024/01/25 00:56:54;;;;;;;28.00;15.87;;;;;;;-144.30;79.51;86680.88;5052684;28;20204;-58
2024/01/25 00:59:22;;;;;;;31.37;16.87;;;;;;;-144.30;80.17;86696.78;5052550;28;20204;-58
2024/01/25 01:01:53;;;;;;;31.20;17.10;;;;;;;-144.30;79.59;86700.78;5052766;28;20677;-58
2024/01/25 01:04:22;;;;;;;27.23;15.87;;;;;;;-144.30;79.78;86680.88;5052479;28;20201;-60
2024/01/25 01:06:49;;;;;;;25.47;14.77;;;;;;;-144.30;79.63;86668.94;5052474;28;20212;-59
2024/01/25 01:09:17;;;;;;;25.13;14.17;;;;;;;-144.30;79.35;86678.88;5052546;28;20602;-58
2024/01/25 01:11:44;;;;;;;21.70;12.43;;;;;;;-144.30;79.41;86688.84;5052514;28;20197;-59
2024/01/25 01:14:12;;;;;;;24.93;12.50;;;;;;;-144.30;79.03;86680.88;5052348;28;20221;-60
2024/01/25 01:16:38;;;;;;;21.77;11.60;;;;;;;-144.30;79.59;86696.78;5051527;28;20207;-59
2024/01/25 01:19:07;;;;;;;14.50;10.17;;;;;;;-144.30;79.48;86682.88;5052034;28;20193;-58
2024/01/25 01:21:36;;;;;;;14.80;10.00;;;;;;;-144.30;79.49;86670.94;5052291;28;20275;-59
2024/01/25 01:24:03;;;;;;;14.97;9.80;;;;;;;-144.30;79.56;86659.00;5052365;28;20642;-58
2024/01/25 01:26:29;;;;;;;13.83;7.90;;;;;;;-144.30;78.89;86662.97;5052314;28;20218;-55
2024/01/25 01:28:56;;;;;;;13.93;8.30;;;;;;;-144.30;78.81;86637.13;5052153;28;20231;-55
2024/01/25 01:31:23;;;;;;;9.13;5.17;;;;;;;-144.30;78.24;86668.94;5052174;28;20200;-56
2024/01/25 01:33:50;;;;;;;5.07;4.07;;;;;;;-144.30;77.63;86635.13;5051920;28;20227;-55
2024/01/25 01:36:17;;;;;;;5.70;4.13;;;;;;;-144.30;76.99;86653.03;5051850;28;20199;-54
2024/01/25 01:38:45;;;;;;;4.00;3.43;;;;;;;-144.30;75.90;86647.06;5052011;28;20201;-55
2024/01/25 01:41:12;;;;;;;3.73;3.03;;;;;;;-144.30;75.12;86591.38;5051762;28;20196;-55
2024/01/25 01:43:39;;;;;;;3.90;2.77;;;;;;;-144.30;73.10;86599.34;5051934;28;20203;-54
2024/01/25 01:46:11;;;;;;;3.73;2.67;;;;;;;-144.30;72.76;86591.38;5051842;28;20204;-59
2024/01/25 01:48:40;;;;;;;3.40;2.87;;;;;;;-144.30;72.08;86599.34;5051722;28;20636;-59
2024/01/25 01:51:08;;;;;;;4.53;2.83;;;;;;;-144.30;70.87;86607.31;5051773;28;20192;-59
2024/01/25 01:53:36;;;;;;;3.37;3.07;;;;;;;-144.30;70.45;86557.59;5052638;28;20212;-58
2024/01/25 01:56:05;;;;;;;4.83;3.03;;;;;;;-144.30;69.01;86575.47;5051961;28;20196;-59
2024/01/25 01:58:32;;;;;;;5.97;3.30;;;;;;;-144.30;68.43;86593.38;5051696;28;20196;-60
2024/01/25 02:01:00;;;;;;;3.90;2.77;;;;;;;-144.30;68.46;86569.50;5051653;28;20513;-59
2024/01/25 02:03:27;;;;;;;4.03;3.20;;;;;;;-144.30;67.75;86527.75;5050941;28;20582;-58
2024/01/25 02:05:55;;;;;;;2.77;2.53;;;;;;;-144.30;67.80;86549.63;5051404;28;20678;-59
2024/01/25 02:08:22;;;;;;;3.70;2.53;;;;;;;-144.30;67.79;86585.44;5051432;28;20200;-59
2024/01/25 02:10:48;;;;;;;4.97;3.00;;;;;;;-144.30;67.72;86545.66;5051339;28;20197;-54
2024/01/25 02:13:16;;;;;;;3.27;2.60;;;;;;;-144.30;66.88;86557.59;5051166;28;20224;-54
2024/01/25 02:15:42;;;;;;;5.27;3.07;;;;;;;-144.30;67.25;86533.72;5051281;28;20196;-55
2024/01/25 02:18:10;;;;;;;4.20;2.53;;;;;;;-144.30;67.31;86521.78;5051296;28;20196;-55
2024/01/25 02:20:37;;;;;;;4.03;2.87;;;;;;;-144.30;67.40;86517.81;5051160;28;20198;-56
2024/01/25 02:23:05;;;;;;;4.07;2.83;;;;;;;-144.30;67.27;86529.75;5051188;28;20192;-59
2024/01/25 02:25:32;;;;;;;3.07;2.87;;;;;;;-144.30;67.48;86533.72;5051121;28;20209;-57
2024/01/25 02:27:59;;;;;;;3.20;2.70;;;;;;;-144.30;67.47;86545.66;5050800;28;20630;-55
2024/01/25 02:30:26;;;;;;;3.50;2.77;;;;;;;-144.30;67.39;86501.91;5050785;28;20979;-56
2024/01/25 02:32:53;;;;;;;4.03;2.77;;;;;;;-144.30;66.85;86525.75;5050943;28;20197;-55
2024/01/25 02:35:20;;;;;;;2.97;2.47;;;;;;;-144.30;67.29;86495.94;5050812;28;20204;-55
2024/01/25 02:37:47;;;;;;;3.87;2.53;;;;;;;-144.30;66.90;86501.91;5050985;28;20685;-56
2024/01/25 02:40:16;;;;;;;3.07;2.33;;;;;;;-144.30;66.51;86545.66;5050657;28;20200;-54
2024/01/25 02:42:43;;;;;;;5.03;3.03;;;;;;;-144.30;67.25;86478.03;5050561;28;20201;-55
2024/01/25 02:45:10;;;;;;;4.50;2.73;;;;;;;-144.30;67.43;86486.00;5050848;28;20695;-55
2024/01/25 02:47:37;;;;;;;3.30;3.00;;;;;;;-144.30;67.37;86482.03;5050783;28;20207;-55
2024/01/25 02:50:04;;;;;;;3.20;2.57;;;;;;;-144.30;67.52;86499.91;5050418;28;20204;-55
2024/01/25 02:52:31;;;;;;;4.07;2.50;;;;;;;-144.30;67.78;86478.03;5050434;28;20247;-54
2024/01/25 02:54:58;;;;;;;4.43;2.80;;;;;;;-144.30;68.18;86505.88;5050330;28;20225;-55
2024/01/25 02:57:26;;;;;;;2.80;2.60;;;;;;;-144.30;68.29;86462.13;5050141;28;20196;-56
2024/01/25 02:59:53;;;;;;;2.50;2.30;;;;;;;-144.30;68.50;86454.19;5050110;28;20196;-55
2024/01/25 03:02:20;;;;;;;2.70;2.50;;;;;;;-144.30;68.44;86480.03;5050407;28;20699;-55
2024/01/25 03:04:48;;;;;;;2.33;2.07;;;;;;;-144.30;68.98;86487.97;5050551;28;20703;-55
2024/01/25 03:07:15;;;;;;;2.70;2.50;;;;;;;-144.30;68.77;86454.19;5050718;28;20536;-55
2024/01/25 03:09:42;;;;;;;2.40;2.30;;;;;;;-144.30;68.93;86460.16;5050064;28;20784;-55
2024/01/25 03:12:09;;;;;;;2.90;2.33;;;;;;;-144.30;68.76;86448.22;5050181;28;20200;-56
2024/01/25 03:14:37;;;;;;;3.30;2.50;;;;;;;-144.30;68.52;86426.34;5050275;28;20260;-55
2024/01/25 03:17:04;;;;;;;4.47;2.20;;;;;;;-144.30;68.76;86430.31;5050122;28;20699;-54
2024/01/25 03:19:31;;;;;;;3.10;2.80;;;;;;;-144.30;69.03;86354.75;5049860;28;20208;-55
2024/01/25 03:21:58;;;;;;;2.60;2.40;;;;;;;-144.30;69.15;86474.06;5050464;28;20288;-56
2024/01/25 03:24:25;;;;;;;4.40;2.77;;;;;;;-144.30;68.77;86420.38;5049784;28;20193;-56
2024/01/25 03:26:52;;;;;;;2.37;2.13;;;;;;;-144.30;69.31;86450.19;5050073;28;20670;-55
2024/01/25 03:29:19;;;;;;;2.90;2.30;;;;;;;-144.30;69.53;86428.31;5049823;28;20232;-56
2024/01/25 03:31:47;;;;;;;4.83;4.30;;;;;;;-144.30;69.30;86398.50;5050094;28;20259;-56
2024/01/25 03:34:14;;;;;;;6.40;3.20;;;;;;;-144.30;69.53;86404.47;5049601;28;20217;-55
2024/01/25 03:36:41;;;;;;;2.30;2.10;;;;;;;-144.30;69.59;86412.41;5050000;28;20240;-54
2024/01/25 03:39:08;;;;;;;2.97;2.40;;;;;;;-144.30;69.36;86428.31;5049865;28;20210;-55
2024/01/25 03:41:35;;;;;;;2.60;2.10;;;;;;;-144.30;69.13;86295.09;5049857;28;20197;-56
2024/01/25 03:44:02;;;;;;;2.77;2.43;;;;;;;-144.30;69.16;86446.22;5049785;28;20207;-55
2024/01/25 03:46:29;;;;;;;2.33;2.13;;;;;;;-144.30;68.61;86464.13;5049524;28;20200;-55
2024/01/25 03:48:57;;;;;;;2.23;2.03;;;;;;;-144.30;68.35;86454.19;5049680;28;20200;-54
2024/01/25 03:51:26;;;;;;;3.17;2.10;;;;;;;-144.30;68.35;86450.19;5049266;28;20706;-55
2024/01/25 03:53:55;;;;;;;2.73;2.30;;;;;;;-144.30;68.65;86406.44;5049863;28;20231;-55
2024/01/25 03:56:22;;;;;;;4.53;2.47;;;;;;;-144.30;68.41;86440.25;5049529;28;20291;-55
2024/01/25 03:58:49;;;;;;;2.20;2.00;;;;;;;-144.30;68.30;86456.16;5049822;28;20207;-55
2024/01/25 04:01:16;;;;;;;4.23;2.20;;;;;;;-144.30;68.38;86416.41;5049340;28;20201;-55
2024/01/25 04:03:43;;;;;;;2.10;1.90;;;;;;;-144.30;68.67;86388.56;5049632;28;20203;-55
2024/01/25 04:06:11;;;;;;;3.30;1.70;;;;;;;-144.30;68.74;86428.31;5050584;28;20201;-55
2024/01/25 04:08:38;;;;;;;2.30;1.90;;;;;;;-144.30;68.35;86372.66;5068681;28;20196;-54
2024/01/25 04:11:05;;;;;;;1.53;1.43;;;;;;;-144.30;70.70;86414.41;5069566;28;20202;-55
2024/01/25 04:13:32;;;;;;;1.43;1.33;;;;;;;-144.30;70.33;86378.63;5069440;28;20228;-55
2024/01/25 04:15:59;;;;;;;1.53;1.30;;;;;;;-144.30;68.22;86382.59;5069519;28;20195;-55
2024/01/25 04:18:26;;;;;;;1.67;0.93;;;;;;;-144.30;67.76;86376.63;5069233;28;20192;-55
2024/01/25 04:20:53;;;;;;;2.57;1.30;;;;;;;-144.30;67.58;86360.72;5069330;28;20621;-55
2024/01/25 04:23:21;;;;;;;3.40;1.20;;;;;;;-144.30;67.26;86342.81;5069340;28;20200;-57
2024/01/25 04:25:48;;;;;;;2.50;1.30;;;;;;;-144.30;66.94;86313.00;5069911;28;20206;-58
2024/01/25 04:28:15;;;;;;;1.47;1.10;;;;;;;-144.30;66.76;86352.75;5073106;28;20656;-58
2024/01/25 04:30:42;;;;;;;4.00;1.33;;;;;;;-144.30;66.65;86311.00;5067959;28;20285;-56
2024/01/25 04:33:09;;;;;;;3.77;1.40;;;;;;;-144.30;66.68;86299.06;5068494;28;20203;-55
2024/01/25 04:35:36;;;;;;;2.10;1.20;;;;;;;-144.30;66.65;86324.94;5073204;28;20227;-55
2024/01/25 04:38:03;;;;;;;3.03;1.00;;;;;;;-144.30;66.58;86326.91;5073045;28;20202;-56
2024/01/25 04:40:31;;;;;;;3.57;1.27;;;;;;;-144.30;66.93;86338.84;5071516;28;20200;-54
2024/01/25 04:42:58;;;;;;;1.20;1.10;;;;;;;-144.30;67.86;86342.81;5053113;28;20292;-58
2024/01/25 04:45:25;;;;;;;4.33;1.77;;;;;;;-144.30;67.26;86346.81;5052912;28;20665;-58
2024/01/25 04:47:53;;;;;;;1.37;1.20;;;;;;;-144.30;67.50;86261.28;5054573;28;20215;-58
2024/01/25 04:50:20;;;;;;;1.97;1.50;;;;;;;-144.30;67.09;86267.25;5078083;28;20452;-59
2024/01/25 04:52:46;;;;;;;1.60;1.50;;;;;;;-144.30;67.35;86318.97;5070905;28;20208;-55
2024/01/25 04:55:13;;;;;;;3.00;1.23;;;;;;;-144.30;67.26;86311.00;5071208;28;20216;-55
2024/01/25 04:57:42;;;;;;;1.40;1.30;;;;;;;-144.30;66.36;86289.13;5072133;28;20278;-55
2024/01/25 05:00:11;;;;;;;2.17;1.70;;;;;;;-144.30;66.75;86311.00;5071949;28;20680;-55
2024/01/25 05:02:38;;;;;;;1.57;1.47;;;;;;;-144.30;67.17;86330.88;5070248;28;20196;-55
2024/01/25 05:05:05;;;;;;;1.73;1.60;;;;;;;-144.30;66.73;86295.09;5069907;28;20653;-55
2024/01/25 05:07:32;;;;;;;1.37;1.27;;;;;;;-144.30;67.24;86293.09;5085890;28;20640;-55
2024/01/25 05:09:59;;;;;;;3.27;1.80;;;;;;;-144.30;67.14;86350.78;5069560;28;20195;-56
2024/01/25 05:12:26;;;;;;;5.03;1.93;;;;;;;-144.30;67.26;86263.28;5071175;28;20199;-55
2024/01/25 05:14:54;;;;;;;2.93;2.10;;;;;;;-144.30;67.75;86340.84;5072342;28;20630;-55
2024/01/25 05:17:21;;;;;;;2.00;1.77;;;;;;;-144.30;67.84;86307.03;5071893;28;20557;-55
2024/01/25 05:19:48;;;;;;;7.33;2.27;;;;;;;-144.30;68.33;86336.84;5061749;28;20215;-55
2024/01/25 05:22:16;;;;;;;1.77;1.67;;;;;;;-144.30;68.75;86346.81;5073217;28;20203;-55
2024/01/25 05:24:43;;;;;;;2.23;1.67;;;;;;;-144.30;68.66;86358.72;5068489;28;20210;-56
2024/01/25 05:27:11;;;;;;;1.87;1.70;;;;;;;-144.30;69.09;86340.84;5067802;28;20236;-55
2024/01/25 05:29:37;;;;;;;2.23;1.93;;;;;;;-144.30;68.85;86326.91;5071102;28;20204;-54
2024/01/25 05:32:07;;;;;;;3.63;2.23;;;;;;;-144.30;68.97;86336.84;5059781;28;20211;-58
2024/01/25 05:34:34;;;;;;;4.77;1.90;;;;;;;-144.30;69.03;86342.81;5068734;28;20301;-58
2024/01/25 05:37:01;;;;;;;5.03;1.30;;;;;;;-144.30;69.17;86326.91;5065314;28;20687;-59
2024/01/25 05:39:28;;;;;;;1.70;1.60;;;;;;;-144.30;70.01;86324.94;5070917;28;20192;-59
2024/01/25 05:41:55;;;;;;;2.10;1.47;;;;;;;-144.30;69.65;86338.84;5058347;28;20188;-58
2024/01/25 05:44:22;;;;;;;2.83;1.53;;;;;;;-144.30;69.61;86360.72;5059529;28;20295;-57
2024/01/25 05:46:48;;;;;;;1.67;1.40;;;;;;;-144.30;69.84;86350.78;5060368;28;20517;-57
2024/01/25 05:49:17;;;;;;;2.40;1.50;;;;;;;-144.30;69.76;86313.00;5059765;28;20217;-58
2024/01/25 05:51:44;;;;;;;1.70;1.30;;;;;;;-144.30;69.60;86334.88;5090400;28;20296;-59
2024/01/25 05:54:11;;;;;;;6.40;1.67;;;;;;;-144.30;69.65;86289.13;5090227;28;20219;-59
2024/01/25 05:56:37;;;;;;;2.67;1.43;;;;;;;-144.30;69.50;86314.97;5092167;28;20696;-59
2024/01/25 05:59:04;;;;;;;1.87;1.17;;;;;;;-144.30;68.80;86271.25;5091699;28;20199;-59
2024/01/25 06:01:31;;;;;;;1.87;1.60;;;;;;;-144.30;68.81;86271.25;5091318;28;20198;-58
2024/01/25 06:03:58;;;;;;;2.90;1.23;;;;;;;-144.30;68.81;86279.19;5091478;28;20195;-59
2024/01/25 06:06:26;;;;;;;2.30;1.70;;;;;;;-144.30;69.06;86295.09;5075613;28;20658;-59
2024/01/25 06:08:53;;;;;;;3.30;1.70;;;;;;;-144.30;68.86;86247.38;5071149;28;20198;-59
2024/01/25 06:11:20;;;;;;;3.30;1.40;;;;;;;-144.30;68.96;86261.28;5066076;28;20206;-58
2024/01/25 06:13:47;;;;;;;1.40;1.30;;;;;;;-144.30;69.21;86293.09;5060531;28;20315;-60
2024/01/25 06:16:14;;;;;;;1.70;1.60;;;;;;;-144.30;69.34;86273.22;5060175;28;20247;-59
2024/01/25 06:18:41;;;;;;;1.93;1.20;;;;;;;-144.30;69.30;86320.94;5057601;28;20204;-59
2024/01/25 06:21:07;;;;;;;4.67;1.63;;;;;;;-144.30;69.53;86313.00;5070345;28;20204;-59
2024/01/25 06:23:36;;;;;;;1.07;1.03;;;;;;;-144.30;69.85;86287.16;5070132;28;20203;-60
2024/01/25 06:26:04;;;;;;;1.63;1.47;;;;;;;-144.30;69.88;86320.94;5057447;28;20192;-59
2024/01/25 06:28:31;;;;;;;4.50;1.33;;;;;;;-144.30;70.19;86336.84;5068880;28;20278;-59
2024/01/25 06:30:58;;;;;;;3.50;1.43;;;;;;;-144.30;70.36;86316.97;5069789;28;20686;-59
2024/01/25 06:33:25;;;;;;;2.30;2.10;;;;;;;-144.30;70.88;86267.25;5057627;28;20202;-59
2024/01/25 06:35:51;;;;;;;3.43;1.73;;;;;;;-144.30;70.95;86283.16;5067618;28;20218;-59
2024/01/25 06:38:19;;;;;;;2.73;1.50;;;;;;;-144.30;70.62;86267.25;5059850;28;20210;-61
2024/01/25 06:40:47;;;;;;;5.23;1.77;;;;;;;-144.30;70.23;86289.13;5057355;28;20199;-59
2024/01/25 06:43:14;;;;;;;3.77;1.60;;;;;;;-144.30;69.80;86291.13;5057639;28;20208;-59
2024/01/25 06:45:40;;;;;;;1.87;1.77;;;;;;;-144.30;69.37;86297.09;5061072;28;20193;-59
2024/01/25 06:48:09;;;;;;;3.47;1.60;;;;;;;-144.30;68.43;86287.16;5062821;28;20206;-59
2024/01/25 06:50:36;;;;;;;1.83;1.60;;;;;;;-144.30;67.72;86285.16;5088785;28;20206;-60
2024/01/25 06:53:03;;;;;;;14.83;1.73;;;;;;;-144.30;67.09;86271.25;5090012;28;20205;-59
2024/01/25 06:55:30;;;;;;;14.40;2.63;;;;;;;-144.30;66.32;86243.41;5090216;28;20720;-59
2024/01/25 06:57:58;;;;;;;8.13;1.40;;;;;;;-144.30;65.76;86299.06;5090498;28;20195;-58
2024/01/25 07:00:25;;;;;;;4.97;1.93;;;;;;;-144.30;65.37;86227.50;5090245;28;20664;-58
2024/01/25 07:02:52;;;;;;;2.03;1.50;;;;;;;-144.30;64.98;86231.47;5090390;28;20199;-56
2024/01/25 07:05:19;;;;;;;4.53;1.60;;;;;;;-144.30;64.95;86195.69;5090274;28;20191;-55
2024/01/25 07:07:46;;;;;;;7.40;1.87;;;;;;;-144.30;64.64;86203.63;5090306;28;20247;-55
2024/01/25 07:10:13;;;;;;;4.87;1.70;;;;;;;-144.30;64.77;86243.41;5090248;28;20191;-56
2024/01/25 07:12:40;;;;;;;5.13;1.93;;;;;;;-144.30;64.56;86229.47;5090198;28;20205;-55
2024/01/25 07:15:09;;;;;;;3.03;1.73;;;;;;;-144.30;64.43;86251.34;5090070;28;20215;-55
2024/01/25 07:17:35;;;;;;;8.90;2.23;;;;;;;-144.30;64.13;86219.53;5090152;28;20582;-55
2024/01/25 07:20:02;;;;;;;4.93;2.07;;;;;;;-144.30;64.08;86245.38;5090156;28;20578;-55
2024/01/25 07:22:29;;;;;;;6.63;2.60;;;;;;;-144.30;63.99;86219.53;5089820;28;20195;-56
2024/01/25 07:24:57;;;;;;;9.80;2.10;;;;;;;-144.30;63.77;86239.44;5090113;28;20187;-55
2024/01/25 07:27:23;;;;;;;5.93;2.07;;;;;;;-144.30;64.06;86231.47;5089682;28;20722;-55
2024/01/25 07:29:50;;;;;;;3.70;2.17;;;;;;;-144.30;64.28;86157.91;5083211;28;20218;-55
2024/01/25 07:32:19;;;;;;;5.57;2.30;;;;;;;-144.30;64.84;86175.78;5069671;28;20196;-56
2024/01/25 07:34:46;;;;;;;3.97;2.30;;;;;;;-144.30;65.20;86205.63;5069773;28;20219;-55
2024/01/25 07:37:14;;;;;;;5.73;2.40;;;;;;;-144.30;65.14;86183.75;5069895;28;20207;-57
2024/01/25 07:39:40;;;;;;;3.27;2.30;;;;;;;-144.30;64.80;86183.75;5069733;28;20200;-55
2024/01/25 07:42:08;;;;;;;5.10;2.53;;;;;;;-144.30;64.17;86195.69;5069776;28;20664;-56
2024/01/25 07:44:34;;;;;;;9.10;2.50;;;;;;;-144.30;63.92;86132.06;5069441;28;20203;-55
2024/01/25 07:47:02;;;;;;;5.27;2.47;;;;;;;-144.30;64.04;86163.88;5069332;28;20202;-55
2024/01/25 07:49:30;;;;;;;5.70;2.30;;;;;;;-144.30;64.01;86191.69;5069336;28;20200;-56
2024/01/25 07:51:57;;;;;;;4.43;2.73;;;;;;;-144.30;63.77;86171.81;5069066;28;20372;-57
2024/01/25 07:54:25;;;;;;;2.30;2.03;;;;;;;-144.30;63.38;86207.59;5054241;28;20210;-59
2024/01/25 07:56:52;;;;;;;2.33;2.10;;;;;;;-144.30;61.93;86163.88;5054262;28;20200;-56
2024/01/25 07:59:19;;;;;;;6.80;2.30;;;;;;;-144.30;61.71;86189.72;5063274;28;20216;-58
2024/01/25 08:01:46;;;;;;;4.17;1.90;;;;;;;-144.30;61.96;86195.69;5059401;28;20599;-58
2024/01/25 08:04:13;;;;;;;4.10;2.17;;;;;;;-144.30;62.17;86199.66;5068551;28;20204;-55
2024/01/25 08:06:41;;;;;;;2.00;1.90;;;;;;;-144.30;65.14;86138.00;5063863;28;20200;-56
2024/01/25 08:09:08;;;;;;;2.97;2.17;;;;;;;-144.30;62.43;86149.94;5059245;28;20633;-57
2024/01/25 08:11:35;;;;;;;6.90;2.33;;;;;;;-144.30;62.51;86124.09;5069241;28;20610;-58
2024/01/25 08:14:03;;;;;;;4.93;2.17;;;;;;;-144.30;61.72;86130.06;5068916;28;20299;-58
2024/01/25 08:16:30;;;;;;;4.80;2.40;;;;;;;-144.30;61.54;86163.88;5069067;28;20259;-59
2024/01/25 08:18:58;;;;;;;10.07;2.10;;;;;;;-144.30;61.33;86136.03;5079755;28;20209;-59
2024/01/25 08:21:25;;;;;;;3.23;2.07;;;;;;;-144.30;61.44;86151.94;5088220;28;20235;-59
2024/01/25 08:23:54;;;;;;;3.40;2.17;;;;;;;-144.30;61.52;86159.88;5088141;28;20213;-60
2024/01/25 08:26:21;;;;;;;4.07;2.30;;;;;;;-144.30;61.56;86132.06;5089232;28;20643;-60
2024/01/25 08:28:48;;;;;;;4.23;2.20;;;;;;;-144.30;61.81;86134.03;5089159;28;20318;-58
2024/01/25 08:31:15;;;;;;;2.53;2.00;;;;;;;-144.30;61.66;86120.13;5089316;28;20199;-60
2024/01/25 08:33:44;;;;;;;7.43;2.20;;;;;;;-144.30;61.84;86142.00;5089150;28;20194;-59
2024/01/25 08:36:10;;;;;;;6.47;2.13;;;;;;;-144.30;62.00;86112.16;5089636;28;20227;-60
2024/01/25 08:38:37;;;;;;;8.03;2.47;;;;;;;-144.30;61.96;86060.47;5089266;28;20294;-56
2024/01/25 08:41:06;;;;;;;5.57;2.43;;;;;;;-144.30;61.98;86056.50;5089168;28;20207;-56
2024/01/25 08:43:33;;;;;;;4.73;2.43;;;;;;;-144.30;61.74;86116.16;5089681;28;20649;-56
2024/01/25 08:46:01;;;;;;;7.43;3.07;;;;;;;-144.30;61.73;86157.91;5089082;28;20192;-55
2024/01/25 08:48:28;;;;;;;6.40;2.63;;;;;;;-144.30;61.96;86136.03;5089037;28;20192;-55
2024/01/25 08:50:55;;;;;;;2.67;2.27;;;;;;;-144.30;62.17;86128.06;5089343;28;20221;-55
2024/01/25 08:53:26;;;;;;;5.30;2.17;;;;;;;-144.30;62.02;86104.22;5089106;28;20711;-55
2024/01/25 08:55:53;;;;;;;12.37;2.70;;;;;;;-144.30;62.03;86120.13;5088964;28;20224;-55
2024/01/25 08:58:22;;;;;;;11.70;2.67;;;;;;;-144.30;61.52;86036.59;5089647;28;20575;-56
2024/01/25 09:00:49;;;;;;;7.63;2.10;;;;;;;-144.30;61.21;86098.25;5089487;28;20689;-55
2024/01/25 09:03:16;;;;;;;4.40;1.70;;;;;;;-144.30;60.77;86140.00;5089015;28;20262;-56
2024/01/25 09:05:45;;;;;;;5.30;2.60;;;;;;;-144.30;60.34;85893.44;5089045;28;20713;-55
2024/01/25 09:08:13;;;;;;;7.57;3.63;;;;;;;-144.30;60.44;86147.97;5088933;28;20264;-57
2024/01/25 09:10:41;;;;;;;14.40;2.97;;;;;;;-144.30;60.38;86153.91;5089076;28;20261;-55
2024/01/25 09:13:09;;;;;;;7.53;2.77;;;;;;;-144.30;60.41;86179.78;5091519;28;20198;-56
2024/01/25 09:15:37;;;;;;;5.70;2.50;;;;;;;-144.30;60.39;86092.28;5092402;28;20225;-56
2024/01/25 09:18:04;;;;;;;21.90;2.67;;;;;;;-144.30;59.84;86132.06;5092498;28;20198;-55
2024/01/25 09:20:31;;;;;;;5.33;2.53;;;;;;;-144.30;60.01;86064.44;5056204;28;20360;-55
2024/01/25 09:22:58;;;;;;;5.27;2.27;;;;;;;-144.30;59.90;86070.41;5059535;28;20215;-55
2024/01/25 09:25:25;;;;;;;11.53;2.80;;;;;;;-144.30;60.08;86112.16;5052171;28;20197;-55
2024/01/25 09:27:52;;;;;;;9.10;2.33;;;;;;;-144.30;59.79;86054.50;5052058;28;20324;-56
2024/01/25 09:30:19;;;;;;;8.60;2.30;;;;;;;-144.30;59.63;86094.28;5055653;28;20210;-56
2024/01/25 09:32:47;;;;;;;7.77;2.40;;;;;;;-144.30;59.79;86108.19;5072130;28;20200;-56
2024/01/25 09:35:14;;;;;;;4.90;2.50;;;;;;;-144.30;59.90;86090.28;5071762;28;20694;-56
2024/01/25 09:37:41;;;;;;;5.67;2.30;;;;;;;-144.30;59.85;86066.44;5065356;28;20204;-58
2024/01/25 09:40:10;;;;;;;4.20;2.07;;;;;;;-144.30;59.26;86102.22;5051799;28;20288;-60
2024/01/25 09:42:37;;;;;;;3.07;2.50;;;;;;;-144.30;59.05;86064.44;5051589;28;20222;-58
2024/01/25 09:45:08;;;;;;;9.07;2.50;;;;;;;-144.30;58.83;86076.38;5051641;28;20235;-59
2024/01/25 09:47:35;;;;;;;4.17;1.97;;;;;;;-144.30;58.20;86032.63;5052080;28;20266;-59
2024/01/25 09:50:04;;;;;;;5.77;2.00;;;;;;;-144.30;58.49;86034.63;5051127;28;20197;-58
2024/01/25 09:52:32;;;;;;;19.43;3.53;;;;;;;-144.30;58.43;86044.56;5051540;28;20201;-58
2024/01/25 09:54:59;;;;;;;5.90;2.17;;;;;;;-144.30;58.02;86014.75;5051470;28;20192;-54
2024/01/25 09:57:29;;;;;;;8.07;2.40;;;;;;;-144.30;58.03;86048.53;5055945;28;20225;-57
2024/01/25 09:59:56;;;;;;;3.77;2.20;;;;;;;-144.30;57.17;86058.47;5055845;28;20211;-56
2024/01/25 10:02:23;;;;;;;8.70;2.67;;;;;;;-144.30;56.92;86000.81;5063903;28;20204;-57
2024/01/25 10:04:51;;;;;;;8.17;2.73;;;;;;;-144.30;56.87;86016.72;5065157;28;20196;-58
2024/01/25 10:07:36;;;;;;;5.47;2.30;;;;;;;-144.30;56.77;86002.81;5061653;28;20508;-56
2024/01/25 10:10:04;;;;;;;5.87;2.43;;;;;;;-144.30;56.87;86018.72;5066883;28;20211;-55
2024/01/25 10:12:31;;;;;;;4.97;3.13;;;;;;;-144.30;56.84;86008.78;5069307;28;20211;-59
2024/01/25 10:14:59;;;;;;;5.77;2.40;;;;;;;-144.30;56.90;86012.75;5058073;28;20602;-55
2024/01/25 10:17:26;;;;;;;4.37;2.57;;;;;;;-144.30;56.72;86060.47;5060478;28;20707;-55
2024/01/25 10:19:53;;;;;;;11.80;3.20;;;;;;;-144.30;56.85;85996.84;5067583;28;20200;-59
2024/01/25 10:22:21;;;;;;;8.10;2.47;;;;;;;-144.30;56.89;86012.75;5053949;28;20641;-57
2024/01/25 10:24:50;;;;;;;5.23;2.60;;;;;;;-144.30;56.85;85969.00;5079045;28;20305;-57
2024/01/25 10:27:17;;;;;;;3.63;2.73;;;;;;;-144.30;57.11;85996.84;5048469;28;20229;-59
2024/01/25 10:29:45;;;;;;;7.20;3.20;;;;;;;-144.30;56.92;86014.75;5049390;28;20232;-59
2024/01/25 10:32:13;;;;;;;7.00;2.90;;;;;;;-144.30;56.75;86012.75;5050608;28;20210;-59
2024/01/25 10:34:40;;;;;;;6.33;2.87;;;;;;;-144.30;56.72;86032.63;5050568;28;20196;-59
2024/01/25 10:37:08;;;;;;;5.77;2.43;;;;;;;-144.30;56.40;85941.16;5050415;28;20223;-59
2024/01/25 10:39:38;;;;;;;5.80;1.97;;;;;;;-144.30;56.32;86024.69;5050515;28;20197;-58
2024/01/25 10:42:06;;;;;;;7.40;2.60;;;;;;;-144.30;56.78;86090.28;5050397;28;20214;-59
2024/01/25 10:44:33;;;;;;;7.83;2.80;;;;;;;-144.30;56.81;86020.69;5050630;28;20200;-59
2024/01/25 10:47:00;;;;;;;5.03;2.57;;;;;;;-144.30;56.70;86016.72;5050177;28;20197;-59
2024/01/25 10:49:28;;;;;;;3.83;2.30;;;;;;;-144.30;56.96;85969.00;5049935;28;20668;-58
2024/01/25 10:51:55;;;;;;;7.97;2.80;;;;;;;-144.30;56.86;85990.88;5050355;28;20698;-58
2024/01/25 10:54:23;;;;;;;9.93;3.67;;;;;;;-144.30;56.41;86048.53;5050394;28;20763;-59
2024/01/25 10:56:53;;;;;;;8.03;3.50;;;;;;;-144.30;55.95;86012.75;5050258;28;20231;-58
2024/01/25 10:59:21;;;;;;;4.90;3.60;;;;;;;-144.30;56.06;86018.72;5050314;28;20759;-59
2024/01/25 11:01:48;;;;;;;5.53;2.57;;;;;;;-144.30;55.95;86028.66;5049693;28;20296;-59
2024/01/25 11:04:17;;;;;;;4.00;2.50;;;;;;;-144.30;55.64;86054.50;5050162;28;20271;-59
2024/01/25 11:06:46;;;;;;;6.53;3.00;;;;;;;-144.30;55.20;86000.81;5050195;28;20207;-60
2024/01/25 11:09:19;;;;;;;7.63;3.47;;;;;;;-144.30;55.30;86008.78;5049928;28;20196;-59
2024/01/25 11:11:48;;;;;;;10.43;3.50;;;;;;;-144.30;55.38;86476.06;5059506;28;20208;-59
2024/01/25 11:14:17;;;;;;;7.33;3.63;;;;;;;-144.30;55.22;85978.94;5052884;28;20204;-59